Time;durP1;ratioP1;P1;durP2;ratioP2;P2;SDS_P1;SDS_P2;PMS_P1;PMS_P2;Temp;Humidity;BMP_temperature;BMP_pressure;BME280_temperature;BME280_humidity;BME280_pressure;Samples;Min_cycle;Max_cycle;Signal;HPM_P1;HPM_P2
2021/03/10 00:01:54;;;;;;;;;;;;;;;3.08;100.00;101380.88;5030473;28;19921;-79
2021/03/10 00:04:19;;;;;;;;;;;;;;;3.02;100.00;101374.19;5031372;28;19928;-82
2021/03/10 00:06:45;;;;;;;;;;;;;;;2.92;100.00;101365.97;5043964;28;19929;-79
2021/03/10 00:09:10;;;;;;;;;;;;;;;2.89;100.00;101371.50;5028906;28;19999;-82
2021/03/10 00:11:35;;;;;;;;;;;;;;;2.85;100.00;101362.06;5029711;28;19980;-80
2021/03/10 00:14:00;;;;;;;;;;;;;;;2.76;100.00;101367.09;5025833;28;19917;-83
2021/03/10 00:16:26;;;;;;;;;;;;;;;2.69;100.00;101374.59;5029396;28;19921;-81
2021/03/10 00:18:51;;;;;;;;;;;;;;;2.67;100.00;101384.44;5031210;28;20101;-84
2021/03/10 00:21:16;;;;;;;;;;;;;;;2.64;100.00;101379.34;5031019;28;20363;-83
2021/03/10 00:23:41;;;;;;;;;;;;;;;2.67;100.00;101382.63;5029873;28;19924;-81
2021/03/10 00:26:07;;;;;;;;;;;;;;;2.67;100.00;101387.06;5027371;28;19964;-82
2021/03/10 00:28:32;;;;;;;;;;;;;;;2.67;100.00;101389.72;5044981;28;19921;-82
2021/03/10 00:30:57;;;;;;;;;;;;;;;2.65;100.00;101384.53;5027574;28;20126;-84
2021/03/10 00:33:22;;;;;;;;;;;;;;;2.66;100.00;101386.25;5030374;28;19928;-82
2021/03/10 00:35:48;;;;;;;;;;;;;;;2.65;100.00;101384.53;5026679;28;19936;-80
2021/03/10 00:38:13;;;;;;;;;;;;;;;2.55;100.00;101380.78;5029578;28;19917;-81
2021/03/10 00:40:38;;;;;;;;;;;;;;;2.55;100.00;101377.28;5018875;28;19964;-83
2021/03/10 00:43:03;;;;;;;;;;;;;;;2.50;100.00;101380.22;5016388;28;19921;-80
2021/03/10 00:45:29;;;;;;;;;;;;;;;2.47;100.00;101375.97;5004895;28;19925;-81
2021/03/10 00:47:57;;;;;;;;;;;;;;;2.45;100.00;101384.97;5001042;28;20388;-81
2021/03/10 00:50:23;;;;;;;;;;;;;;;2.39;100.00;101386.22;5001543;28;19930;-80
2021/03/10 00:52:48;;;;;;;;;;;;;;;2.31;100.00;101383.19;5009444;28;19918;-80
2021/03/10 00:55:13;;;;;;;;;;;;;;;2.19;100.00;101389.25;5016376;28;19925;-83
2021/03/10 00:57:39;;;;;;;;;;;;;;;2.19;100.00;101399.84;5027480;28;19949;-81
2021/03/10 01:00:05;;;;;;;;;;;;;;;2.21;100.00;101411.19;5009313;28;20287;-84
2021/03/10 01:02:30;;;;;;;;;;;;;;;2.27;100.00;101408.16;5012180;28;20439;-84
2021/03/10 01:04:55;;;;;;;;;;;;;;;2.24;100.00;101414.50;5027995;28;20020;-83
2021/03/10 01:07:20;;;;;;;;;;;;;;;2.18;100.00;101414.03;5029950;28;20431;-82
2021/03/10 01:09:46;;;;;;;;;;;;;;;2.17;100.00;101412.34;5029694;28;20382;-84
2021/03/10 01:12:11;;;;;;;;;;;;;;;2.15;100.00;101415.06;5008863;28;19921;-80
2021/03/10 01:14:36;;;;;;;;;;;;;;;2.12;100.00;101409.09;5020610;28;19949;-81
2021/03/10 01:17:01;;;;;;;;;;;;;;;2.03;100.00;101408.72;5024708;28;19917;-82
2021/03/10 01:19:27;;;;;;;;;;;;;;;2.00;100.00;101416.00;5025364;28;19928;-83
2021/03/10 01:21:52;;;;;;;;;;;;;;;2.01;100.00;101410.63;5025733;28;19957;-81
2021/03/10 01:24:17;;;;;;;;;;;;;;;2.04;100.00;101420.16;5022568;28;19987;-83
2021/03/10 01:26:44;;;;;;;;;;;;;;;2.05;100.00;101423.69;5022111;28;19921;-82
2021/03/10 01:29:09;;;;;;;;;;;;;;;2.11;100.00;101431.25;5003467;28;19925;-82
2021/03/10 01:31:34;;;;;;;;;;;;;;;2.13;100.00;101424.03;5024093;28;19975;-85
2021/03/10 01:33:59;;;;;;;;;;;;;;;2.17;100.00;101422.94;5003396;28;20347;-80
2021/03/10 01:36:25;;;;;;;;;;;;;;;2.19;100.00;101426.34;5004831;28;19944;-85
2021/03/10 01:38:50;;;;;;;;;;;;;;;2.19;100.00;101428.97;4992413;28;19983;-78
2021/03/10 01:41:15;;;;;;;;;;;;;;;2.22;100.00;101421.69;5017943;28;20431;-83
2021/03/10 01:43:41;;;;;;;;;;;;;;;2.24;100.00;101425.09;5024257;28;19917;-78
2021/03/10 01:46:06;;;;;;;;;;;;;;;2.22;100.00;101416.41;5021212;28;19961;-81
2021/03/10 01:48:32;;;;;;;;;;;;;;;2.21;100.00;101413.81;5038657;28;19927;-82
2021/03/10 01:51:01;;;;;;;;;;;;;;;2.20;100.00;101404.19;5023418;28;19921;-80
2021/03/10 01:53:26;;;;;;;;;;;;;;;2.22;100.00;101399.66;5024257;28;19917;-80
2021/03/10 01:55:53;;;;;;;;;;;;;;;2.23;100.00;101396.06;5023361;28;19931;-82
2021/03/10 01:58:18;;;;;;;;;;;;;;;2.28;100.00;101404.56;5039405;28;19918;-81
2021/03/10 02:00:44;;;;;;;;;;;;;;;2.25;100.00;101394.16;5021503;28;19917;-79
2021/03/10 02:03:09;;;;;;;;;;;;;;;2.26;100.00;101385.28;5020485;28;19928;-83
2021/03/10 02:05:34;;;;;;;;;;;;;;;2.23;100.00;101393.41;5017048;28;20461;-82
2021/03/10 02:08:18;;;;;;;;;;;;;;;2.17;100.00;101383.19;5023815;28;19918;-79
2021/03/10 02:10:53;;;;;;;;;;;;;;;2.16;100.00;101390.31;5022270;28;19924;-81
2021/03/10 02:13:28;;;;;;;;;;;;;;;2.16;100.00;101378.88;5017695;28;20286;-81
2021/03/10 02:16:19;;;;;;;;;;;;;;;2.13;100.00;101379.91;5038330;28;19932;-79
2021/03/10 02:18:46;;;;;;;;;;;;;;;2.13;100.00;101379.91;4994223;28;19961;-81
2021/03/10 02:21:17;;;;;;;;;;;;;;;2.13;100.00;101379.03;5020666;28;19921;-81
2021/03/10 02:23:55;;;;;;;;;;;;;;;2.13;100.00;101379.91;5027957;28;19918;-80
2021/03/10 02:26:32;;;;;;;;;;;;;;;2.13;100.00;101382.56;5027915;28;19917;-85
2021/03/10 02:29:07;;;;;;;;;;;;;;;2.15;100.00;101391.22;5027506;28;20333;-83
2021/03/10 02:31:35;;;;;;;;;;;;;;;2.14;100.00;101378.09;5024027;28;19921;-80
2021/03/10 02:34:01;;;;;;;;;;;;;;;2.15;100.00;101382.44;5024553;28;19988;-85
2021/03/10 02:36:27;;;;;;;;;;;;;;;2.14;100.00;101388.69;5023956;28;19917;-81
2021/03/10 02:38:53;;;;;;;;;;;;;;;2.10;100.00;101382.75;5024942;28;19921;-83
2021/03/10 02:41:18;;;;;;;;;;;;;;;2.08;100.00;101381.13;5028948;28;19967;-80
2021/03/10 02:43:45;;;;;;;;;;;;;;;2.08;100.00;101376.69;5023692;28;20394;-78
2021/03/10 02:46:10;;;;;;;;;;;;;;;2.08;100.00;101370.53;5021969;28;20031;-81
2021/03/10 02:48:36;;;;;;;;;;;;;;;2.03;100.00;101374.31;5026123;28;19933;-84
2021/03/10 02:51:02;;;;;;;;;;;;;;;2.05;100.00;101365.44;5025653;28;19917;-79
2021/03/10 02:53:28;;;;;;;;;;;;;;;2.05;100.00;101366.28;5025881;28;19982;-79
2021/03/10 02:55:54;;;;;;;;;;;;;;;2.07;100.00;101368.81;5002513;28;19918;-82
2021/03/10 02:58:19;;;;;;;;;;;;;;;2.03;100.00;101358.44;5019225;28;19924;-80
2021/03/10 03:00:46;;;;;;;;;;;;;;;2.05;100.00;101365.44;5007025;28;20010;-83
2021/03/10 03:03:11;;;;;;;;;;;;;;;2.05;100.00;101362.78;5017023;28;19918;-81
2021/03/10 03:05:37;;;;;;;;;;;;;;;1.97;100.00;101369.41;5024494;28;19936;-78
2021/03/10 03:08:04;;;;;;;;;;;;;;;2.00;100.00;101361.25;5006306;28;20392;-81
2021/03/10 03:10:31;;;;;;;;;;;;;;;2.04;100.00;101367.22;5026151;28;19959;-81
2021/03/10 03:12:57;;;;;;;;;;;;;;;2.06;100.00;101361.84;5020841;28;19964;-80
2021/03/10 03:15:23;;;;;;;;;;;;;;;2.08;100.00;101357.31;5025670;28;19921;-79
2021/03/10 03:17:49;;;;;;;;;;;;;;;2.09;100.00;101357.19;5009737;28;20283;-81
2021/03/10 03:20:14;;;;;;;;;;;;;;;2.06;100.00;101367.13;5005672;28;19921;-82
2021/03/10 03:22:42;;;;;;;;;;;;;;;2.08;100.00;101358.16;5006220;28;19917;-82
2021/03/10 03:25:10;;;;;;;;;;;;;;;2.09;100.00;101361.63;5003962;28;19922;-82
2021/03/10 03:27:35;;;;;;;;;;;;;;;2.10;100.00;101364.22;5033540;28;19921;-83
2021/03/10 03:30:01;;;;;;;;;;;;;;;2.10;100.00;101368.63;5005228;28;19924;-78
2021/03/10 03:32:27;;;;;;;;;;;;;;;2.14;100.00;101363.06;5031033;28;19921;-79
2021/03/10 03:34:56;;;;;;;;;;;;;;;2.21;100.00;101358.22;4992008;28;20016;-83
2021/03/10 03:37:23;;;;;;;;;;;;;;;2.25;100.00;101354.44;4994563;28;20055;-80
2021/03/10 03:39:48;;;;;;;;;;;;;;;2.25;100.00;101360.59;5000021;28;20160;-82
2021/03/10 03:42:14;;;;;;;;;;;;;;;2.21;100.00;101360.88;5000862;28;19921;-83
2021/03/10 03:44:39;;;;;;;;;;;;;;;2.17;100.00;101359.38;5004443;28;19921;-84
2021/03/10 03:47:05;;;;;;;;;;;;;;;2.15;100.00;101363.91;5035771;28;19928;-82
2021/03/10 03:49:30;;;;;;;;;;;;;;;2.14;100.00;101359.56;5014193;28;19923;-83
2021/03/10 03:51:55;;;;;;;;;;;;;;;2.12;100.00;101359.66;5000382;28;19925;-83
2021/03/10 03:54:21;;;;;;;;;;;;;;;2.07;100.00;101359.06;5021568;28;20004;-83
2021/03/10 03:56:46;;;;;;;;;;;;;;;2.06;100.00;101361.84;5039522;28;20075;-81
2021/03/10 03:59:11;;;;;;;;;;;;;;;1.99;100.00;101356.94;5026811;28;19924;-81
2021/03/10 04:01:36;;;;;;;;;;;;;;;1.90;100.00;101362.78;5024310;28;19928;-81
2021/03/10 04:04:01;;;;;;;;;;;;;;;1.99;100.00;101358.72;5022796;28;19931;-79
2021/03/10 04:06:28;;;;;;;;;;;;;;;1.90;100.00;101352.22;5040542;28;19925;-79
2021/03/10 04:08:53;;;;;;;;;;;;;;;1.90;100.00;101356.63;5013060;28;19917;-80
2021/03/10 04:11:18;;;;;;;;;;;;;;;1.88;100.00;101353.25;5035264;28;19917;-84
2021/03/10 04:13:45;;;;;;;;;;;;;;;1.87;100.00;101341.81;5024933;28;20310;-82
2021/03/10 04:16:10;;;;;;;;;;;;;;;1.91;100.00;101326.59;5019202;28;20006;-83
2021/03/10 04:18:37;;;;;;;;;;;;;;;1.91;100.00;101343.31;5015540;28;20404;-80
2021/03/10 04:21:03;;;;;;;;;;;;;;;1.95;100.00;101338.66;5022874;28;20291;-80
2021/03/10 04:23:29;;;;;;;;;;;;;;;1.88;100.00;101332.91;4993621;28;19933;-81
2021/03/10 04:25:54;;;;;;;;;;;;;;;1.84;100.00;101338.47;5010780;28;19928;-83
2021/03/10 04:28:19;;;;;;;;;;;;;;;1.90;100.00;101338.97;4998548;28;20412;-80
2021/03/10 04:30:44;;;;;;;;;;;;;;;1.94;100.00;101344.91;5004020;28;20418;-81
2021/03/10 04:33:10;;;;;;;;;;;;;;;1.93;100.00;101343.22;5023596;28;20355;-80
2021/03/10 04:35:35;;;;;;;;;;;;;;;1.96;100.00;101338.59;5022604;28;19951;-81
2021/03/10 04:38:00;;;;;;;;;;;;;;;1.96;100.00;101338.59;5023897;28;19956;-80
2021/03/10 04:40:26;;;;;;;;;;;;;;;1.95;100.00;101334.22;5007486;28;19924;-81
2021/03/10 04:42:52;;;;;;;;;;;;;;;1.96;100.00;101335.94;5027442;28;19924;-79
2021/03/10 04:45:17;;;;;;;;;;;;;;;1.95;100.00;101338.66;5039355;28;19921;-82
2021/03/10 04:47:43;;;;;;;;;;;;;;;1.93;100.00;101330.84;5022832;28;19982;-81
2021/03/10 04:50:08;;;;;;;;;;;;;;;1.92;100.00;101325.63;5023575;28;19975;-83
2021/03/10 04:52:33;;;;;;;;;;;;;;;1.88;100.00;101330.28;5010966;28;20372;-83
2021/03/10 04:54:59;;;;;;;;;;;;;;;1.88;100.00;101330.28;5017989;28;20272;-80
2021/03/10 04:57:24;;;;;;;;;;;;;;;1.86;100.00;101332.16;5010307;28;19996;-82
2021/03/10 04:59:50;;;;;;;;;;;;;;;1.83;100.00;101332.34;5027190;28;20004;-80
2021/03/10 05:02:15;;;;;;;;;;;;;;;1.82;100.00;101345.69;5031940;28;20000;-80
2021/03/10 05:04:40;;;;;;;;;;;;;;;1.83;100.00;101355.31;4996097;28;19922;-82
2021/03/10 05:07:06;;;;;;;;;;;;;;;1.74;100.00;101349.63;5004220;28;19918;-79
2021/03/10 05:09:31;;;;;;;;;;;;;;;1.71;100.00;101351.63;5039387;28;20378;-81
2021/03/10 05:11:57;;;;;;;;;;;;;;;1.65;100.00;101352.00;5027310;28;19923;-82
2021/03/10 05:14:22;;;;;;;;;;;;;;;1.58;100.00;101346.22;5028015;28;19929;-83
2021/03/10 05:16:48;;;;;;;;;;;;;;;1.62;100.00;101337.16;5024182;28;20000;-82
2021/03/10 05:19:14;;;;;;;;;;;;;;;1.62;100.00;101347.75;5022679;28;20449;-82
2021/03/10 05:21:39;;;;;;;;;;;;;;;1.61;100.00;101348.66;5026131;28;19921;-79
2021/03/10 05:24:05;;;;;;;;;;;;;;;1.60;100.00;101354.91;4998945;28;20045;-80
2021/03/10 05:26:30;;;;;;;;;;;;;;;1.58;100.00;101347.09;5012012;28;20086;-82
2021/03/10 05:28:55;;;;;;;;;;;;;;;1.57;100.00;101334.78;5014045;28;19976;-82
2021/03/10 05:31:20;;;;;;;;;;;;;;;1.54;100.00;101339.41;5003090;28;19917;-82
2021/03/10 05:33:45;;;;;;;;;;;;;;;1.51;100.00;101342.25;5001326;28;19971;-82
2021/03/10 05:36:11;;;;;;;;;;;;;;;1.53;100.00;101345.66;5021178;28;19956;-81
2021/03/10 05:38:36;;;;;;;;;;;;;;;1.56;100.00;101348.13;5019569;28;19917;-82
2021/03/10 05:41:01;;;;;;;;;;;;;;;1.55;100.00;101342.00;5003942;28;19929;-83
2021/03/10 05:43:28;;;;;;;;;;;;;;;1.53;100.00;101343.03;5003861;28;20387;-80
2021/03/10 05:45:54;;;;;;;;;;;;;;;1.55;100.00;101331.41;5005948;28;20138;-84
2021/03/10 05:48:19;;;;;;;;;;;;;;;1.56;100.00;101330.44;5023739;28;19971;-81
2021/03/10 05:50:44;;;;;;;;;;;;;;;1.55;100.00;101331.41;5023481;28;19971;-82
2021/03/10 05:53:11;;;;;;;;;;;;;;;1.57;100.00;101337.44;5020555;28;19949;-81
2021/03/10 05:55:38;;;;;;;;;;;;;;;1.60;100.00;101327.63;5022451;28;19923;-83
2021/03/10 05:58:07;;;;;;;;;;;;;;;1.65;100.00;101325.53;5025537;28;19924;-82
2021/03/10 06:00:33;;;;;;;;;;;;;;;1.69;100.00;101327.03;5019422;28;20384;-79
2021/03/10 06:02:59;;;;;;;;;;;;;;;1.70;100.00;101329.63;5022558;28;19964;-83
2021/03/10 06:05:24;;;;;;;;;;;;;;;1.72;100.00;101322.41;5038958;28;19991;-82
2021/03/10 06:08:03;;;;;;;;;;;;;;;1.74;100.00;101324.97;5028047;28;19917;-79
2021/03/10 06:10:39;;;;;;;;;;;;;;;1.75;100.00;101326.66;5039650;28;19945;-80
2021/03/10 06:13:04;;;;;;;;;;;;;;;1.77;100.00;101322.97;5041547;28;19925;-80
2021/03/10 06:15:40;;;;;;;;;;;;;;;1.76;100.00;101323.94;5005201;28;19924;-81
2021/03/10 06:18:05;;;;;;;;;;;;;;;1.79;100.00;101323.75;5022775;28;19925;-78
2021/03/10 06:20:32;;;;;;;;;;;;;;;1.81;100.00;101326.28;5023178;28;20298;-81
2021/03/10 06:22:57;;;;;;;;;;;;;;;1.83;100.00;101324.41;5023334;28;19925;-79
2021/03/10 06:25:24;;;;;;;;;;;;;;;1.84;100.00;101323.44;5021298;28;20675;-82
2021/03/10 06:27:53;;;;;;;;;;;;;;;1.87;100.00;101320.63;5009116;28;19926;-80
2021/03/10 06:30:29;;;;;;;;;;;;;;;1.87;100.00;101318.00;5014679;28;19924;-82
2021/03/10 06:32:55;;;;;;;;;;;;;;;1.90;100.00;101308.97;5008253;28;19917;-80
2021/03/10 06:35:24;;;;;;;;;;;;;;;1.92;100.00;101323.81;5006952;28;19975;-82
2021/03/10 06:37:49;;;;;;;;;;;;;;;1.95;100.00;101328.09;5011134;28;20346;-81
2021/03/10 06:40:15;;;;;;;;;;;;;;;1.97;100.00;101320.91;5017165;28;19936;-83
2021/03/10 06:42:40;;;;;;;;;;;;;;;1.99;100.00;101329.59;5027388;28;20435;-80
2021/03/10 06:45:06;;;;;;;;;;;;;;;2.00;100.00;101324.19;5006224;28;19932;-83
2021/03/10 06:47:40;;;;;;;;;;;;;;;2.03;100.00;101331.09;4995944;28;20277;-79
2021/03/10 06:50:07;;;;;;;;;;;;;;;2.07;100.00;101334.41;4996850;28;20013;-82
2021/03/10 06:52:32;;;;;;;;;;;;;;;2.08;100.00;101333.47;5001116;28;20000;-80
2021/03/10 06:54:59;;;;;;;;;;;;;;;2.12;100.00;101334.97;5022801;28;20024;-78
2021/03/10 06:57:24;;;;;;;;;;;;;;;2.15;100.00;101327.69;5023223;28;20344;-82
2021/03/10 06:59:53;;;;;;;;;;;;;;;2.17;100.00;101319.66;5023307;28;19952;-78
2021/03/10 07:02:26;;;;;;;;;;;;;;;2.20;100.00;101314.16;5021268;28;20379;-81
2021/03/10 07:04:52;;;;;;;;;;;;;;;2.22;100.00;101317.56;5025945;28;20031;-83
2021/03/10 07:07:18;;;;;;;;;;;;;;;2.25;100.00;101320.03;5022301;28;19924;-83
2021/03/10 07:09:43;;;;;;;;;;;;;;;2.28;100.00;101326.91;5023634;28;20000;-81
2021/03/10 07:12:09;;;;;;;;;;;;;;;2.31;100.00;101329.38;5026097;28;20019;-82
2021/03/10 07:14:35;;;;;;;;;;;;;;;2.34;100.00;101327.38;5019228;28;19917;-80
2021/03/10 07:17:03;;;;;;;;;;;;;;;2.40;100.00;101329.63;5020384;28;19932;-81
2021/03/10 07:19:28;;;;;;;;;;;;;;;2.43;100.00;101331.22;5025523;28;19992;-82
2021/03/10 07:21:56;;;;;;;;;;;;;;;2.45;100.00;101332.84;5028289;28;19924;-80
2021/03/10 07:24:32;;;;;;;;;;;;;;;2.51;100.00;101331.59;5022952;28;20300;-80
2021/03/10 07:26:58;;;;;;;;;;;;;;;2.54;100.00;101331.38;5015190;28;20370;-81
2021/03/10 07:29:24;;;;;;;;;;;;;;;2.58;100.00;101330.22;5024977;28;19964;-81
2021/03/10 07:32:03;;;;;;;;;;;;;;;2.62;100.00;101333.56;5028352;28;19931;-79
2021/03/10 07:34:28;;;;;;;;;;;;;;;2.67;100.00;101337.56;5027483;28;19921;-82
2021/03/10 07:36:54;;;;;;;;;;;;;;;2.69;100.00;101334.84;5042599;28;20447;-83
2021/03/10 07:39:23;;;;;;;;;;;;;;;2.75;100.00;101330.94;5027489;28;19917;-79
2021/03/10 07:41:49;;;;;;;;;;;;;;;2.77;100.00;101323.75;5013587;28;19927;-81
2021/03/10 07:44:17;;;;;;;;;;;;;;;2.82;100.00;101330.44;5002710;28;20713;-81
2021/03/10 07:46:43;;;;;;;;;;;;;;;2.84;100.00;101323.22;5015308;28;19917;-82
2021/03/10 07:49:22;;;;;;;;;;;;;;;2.87;100.00;101325.66;5026064;28;19963;-79
2021/03/10 07:51:47;;;;;;;;;;;;;;;2.90;100.00;101325.47;5027358;28;19924;-80
2021/03/10 07:54:15;;;;;;;;;;;;;;;2.93;100.00;101319.97;5029991;28;19917;-78
2021/03/10 07:56:40;;;;;;;;;;;;;;;2.97;100.00;101317.97;5031402;28;19917;-83
2021/03/10 07:59:13;;;;;;;;;;;;;;;3.02;100.00;101325.59;5026311;28;19932;-80
2021/03/10 08:01:39;;;;;;;;;;;;;;;3.07;100.00;101323.50;5022323;28;20447;-79
2021/03/10 08:04:22;;;;;;;;;;;;;;;3.11;100.00;101309.09;5024423;28;20015;-83
2021/03/10 08:06:48;;;;;;;;;;;;;;;3.15;100.00;101306.13;5024193;28;20346;-80
2021/03/10 08:09:15;;;;;;;;;;;;;;;3.19;100.00;101308.56;5040907;28;19921;-79
2021/03/10 08:11:44;;;;;;;;;;;;;;;3.23;100.00;101307.41;5022784;28;19925;-79
2021/03/10 08:14:10;;;;;;;;;;;;;;;3.28;100.00;101300.84;5021222;28;20009;-80
2021/03/10 08:16:42;;;;;;;;;;;;;;;3.32;100.00;101301.47;5025951;28;19960;-79
2021/03/10 08:19:08;;;;;;;;;;;;;;;3.35;100.00;101307.41;5017479;28;20024;-83
2021/03/10 08:21:33;;;;;;;;;;;;;;;3.41;100.00;101307.94;5025832;28;20016;-81
2021/03/10 08:24:02;;;;;;;;;;;;;;;3.44;100.00;101302.44;5024575;28;19948;-78
2021/03/10 08:26:27;;;;;;;;;;;;;;;3.50;100.00;101300.19;5029660;28;19924;-80
2021/03/10 08:28:53;;;;;;;;;;;;;;;3.54;100.00;101306.13;5035719;28;20465;-85
2021/03/10 08:31:18;;;;;;;;;;;;;;;3.59;100.00;101298.72;5024711;28;20369;-78
2021/03/10 08:33:48;;;;;;;;;;;;;;;3.63;100.00;101296.72;5023117;28;19967;-82
2021/03/10 08:36:15;;;;;;;;;;;;;;;3.68;100.00;101292.75;5024488;28;19929;-78
2021/03/10 08:38:41;;;;;;;;;;;;;;;3.71;100.00;101287.25;5026244;28;19956;-79
2021/03/10 08:41:07;;;;;;;;;;;;;;;3.77;100.00;101275.31;5026217;28;20337;-79
2021/03/10 08:43:33;;;;;;;;;;;;;;;3.84;100.00;101279.25;5023978;28;19928;-82
2021/03/10 08:45:58;;;;;;;;;;;;;;;3.89;100.00;101279.78;5039348;28;19971;-81
2021/03/10 08:48:25;;;;;;;;;;;;;;;3.93;100.00;101291.03;5025876;28;20442;-80
2021/03/10 08:50:50;;;;;;;;;;;;;;;3.99;100.00;101301.22;5023823;28;20096;-83
2021/03/10 08:53:16;;;;;;;;;;;;;;;4.06;100.00;101286.56;5021357;28;20020;-81
2021/03/10 08:55:42;;;;;;;;;;;;;;;4.12;100.00;101288.75;5029575;28;20287;-82
2021/03/10 08:58:09;;;;;;;;;;;;;;;4.17;100.00;101289.28;5024430;28;19921;-80
2021/03/10 09:00:34;;;;;;;;;;;;;;;4.22;100.00;101289.78;5026640;28;21038;-81
2021/03/10 09:03:08;;;;;;;;;;;;;;;4.28;100.00;101296.47;5011647;28;19944;-78
2021/03/10 09:05:33;;;;;;;;;;;;;;;4.31;100.00;101280.28;5005408;28;19922;-79
2021/03/10 09:07:58;;;;;;;;;;;;;;;4.32;100.00;101282.00;5006092;28;19922;-79
2021/03/10 09:10:24;;;;;;;;;;;;;;;4.38;100.00;101278.91;5016845;28;19921;-81
2021/03/10 09:12:51;;;;;;;;;;;;;;;4.43;100.00;101287.38;5019623;28;19923;-81
2021/03/10 09:15:18;;;;;;;;;;;;;;;4.45;100.00;101280.13;5023279;28;19924;-80
2021/03/10 09:17:43;;;;;;;;;;;;;;;4.49;100.00;101281.63;5004096;28;19918;-80
2021/03/10 09:20:20;;;;;;;;;;;;;;;4.54;100.00;101281.25;5023960;28;19917;-80
2021/03/10 09:22:46;;;;;;;;;;;;;;;4.60;100.00;101283.47;5023243;28;19921;-82
2021/03/10 09:25:15;;;;;;;;;;;;;;;4.64;100.00;101276.13;5024302;28;20394;-81
2021/03/10 09:27:41;;;;;;;;;;;;;;;4.64;100.00;101281.44;5021759;28;19928;-80
2021/03/10 09:30:08;;;;;;;;;;;;;;;4.66;100.00;101267.09;5024808;28;19921;-78
2021/03/10 09:32:44;;;;;;;;;;;;;;;4.72;100.00;101269.28;5009885;28;20335;-83
2021/03/10 09:35:11;;;;;;;;;;;;;;;4.78;100.00;101267.13;5020744;28;19921;-81
2021/03/10 09:37:42;;;;;;;;;;;;;;;4.82;100.00;101258.78;5018838;28;19928;-83
2021/03/10 09:40:07;;;;;;;;;;;;;;;4.84;100.00;101250.72;5035292;28;20387;-80
2021/03/10 09:42:33;;;;;;;;;;;;;;;4.90;100.00;101255.56;5022782;28;20012;-82
2021/03/10 09:44:58;;;;;;;;;;;;;;;4.95;100.00;101261.38;5021502;28;19927;-80
2021/03/10 09:47:24;;;;;;;;;;;;;;;4.98;100.00;101256.66;5023260;28;19917;-78
2021/03/10 09:49:49;;;;;;;;;;;;;;;5.05;100.00;101249.06;5020839;28;20437;-78
2021/03/10 09:52:15;;;;;;;;;;;;;;;5.09;100.00;101249.66;5022605;28;19921;-80
2021/03/10 09:54:50;;;;;;;;;;;;;;;5.13;100.00;101252.00;5021154;28;19917;-82
2021/03/10 09:57:22;;;;;;;;;;;;;;;5.23;100.00;101235.31;5022022;28;20311;-80
2021/03/10 09:59:48;;;;;;;;;;;;;;;5.34;100.00;101238.00;5025582;28;19924;-82
2021/03/10 10:02:14;;;;;;;;;;;;;;;5.35;100.00;101232.56;5026405;28;19920;-78
2021/03/10 10:04:40;;;;;;;;;;;;;;;5.38;100.00;101223.47;5023606;28;19932;-81
2021/03/10 10:07:07;;;;;;;;;;;;;;;5.46;100.00;101233.50;5034146;28;19925;-80
2021/03/10 10:09:33;;;;;;;;;;;;;;;5.55;100.00;101214.16;5023390;28;20294;-80
2021/03/10 10:11:58;;;;;;;;;;;;;;;5.58;100.00;101217.44;5037234;28;19917;-82
2021/03/10 10:14:24;;;;;;;;;;;;;;;5.60;100.00;101215.47;5022892;28;20292;-79
2021/03/10 10:16:49;;;;;;;;;;;;;;;5.63;100.00;101217.91;5022956;28;19924;-79
2021/03/10 10:19:14;;;;;;;;;;;;;;;5.71;100.00;101214.63;5038024;28;19939;-80
2021/03/10 10:21:39;;;;;;;;;;;;;;;5.73;100.00;101211.88;5024609;28;19967;-80
2021/03/10 10:24:05;;;;;;;;;;;;;;;5.75;100.00;101226.72;5034304;28;20032;-82
2021/03/10 10:26:30;;;;;;;;;;;;;;;5.83;100.00;101234.13;5037867;28;19917;-79
2021/03/10 10:28:55;;;;;;;;;;;;;;;5.87;100.00;101232.91;5022383;28;19948;-82
2021/03/10 10:31:21;;;;;;;;;;;;;;;5.88;100.00;101229.28;5025453;28;19940;-83
2021/03/10 10:33:46;;;;;;;;;;;;;;;5.95;100.00;101234.97;5037224;28;19921;-80
2021/03/10 10:36:11;;;;;;;;;;;;;;;5.99;100.00;101233.78;5020327;28;19921;-82
2021/03/10 10:38:37;;;;;;;;;;;;;;;6.06;100.00;101229.63;5022306;28;19921;-81
2021/03/10 10:41:02;;;;;;;;;;;;;;;6.08;100.00;101222.38;5021416;28;19925;-80
2021/03/10 10:43:33;;;;;;;;;;;;;;;6.10;100.00;101223.94;5021625;28;19925;-81
2021/03/10 10:45:58;;;;;;;;;;;;;;;6.18;100.00;101222.44;5025499;28;20403;-80
2021/03/10 10:48:24;;;;;;;;;;;;;;;6.21;100.00;101223.03;5025809;28;19967;-79
2021/03/10 10:50:49;;;;;;;;;;;;;;;6.24;100.00;101221.94;5007019;28;19917;-82
2021/03/10 10:53:14;;;;;;;;;;;;;;;6.27;100.00;101225.22;5024737;28;19969;-79
2021/03/10 10:55:40;;;;;;;;;;;;;;;6.30;100.00;101224.97;5028185;28;19975;-80
2021/03/10 10:58:05;;;;;;;;;;;;;;;6.33;100.00;101226.56;5009821;28;19921;-79
2021/03/10 11:00:30;;;;;;;;;;;;;;;6.37;100.00;101224.47;5031951;28;19925;-83
2021/03/10 11:02:56;;;;;;;;;;;;;;;6.40;100.00;101217.06;5026445;28;19917;-81
2021/03/10 11:05:21;;;;;;;;;;;;;;;6.39;100.00;101228.69;5027103;28;19927;-80
2021/03/10 11:07:46;;;;;;;;;;;;;;;6.42;100.00;101223.13;5019655;28;19918;-79
2021/03/10 11:10:11;;;;;;;;;;;;;;;6.42;100.00;101219.59;5018543;28;19921;-84
2021/03/10 11:12:37;;;;;;;;;;;;;;;6.43;100.00;101222.13;5012265;28;19928;-82
2021/03/10 11:15:03;;;;;;;;;;;;;;;6.47;100.00;101223.59;5011914;28;19917;-81
2021/03/10 11:17:28;;;;;;;;;;;;;;;6.45;99.85;101220.19;5004452;28;20024;-82
2021/03/10 11:19:53;;;;;;;;;;;;;;;6.48;100.00;101237.75;5026251;28;19917;-79
2021/03/10 11:22:18;;;;;;;;;;;;;;;6.51;100.00;101218.84;5045520;28;19924;-83
2021/03/10 11:24:44;;;;;;;;;;;;;;;6.53;100.00;101217.75;5030099;28;19925;-81
2021/03/10 11:27:09;;;;;;;;;;;;;;;6.54;99.42;101202.59;5031682;28;19921;-81
2021/03/10 11:29:34;;;;;;;;;;;;;;;6.58;99.21;101208.50;5045239;28;19917;-82
2021/03/10 11:32:01;;;;;;;;;;;;;;;6.67;99.65;101202.38;5012931;28;19923;-82
2021/03/10 11:34:26;;;;;;;;;;;;;;;6.77;100.00;101200.66;5031312;28;19921;-81
2021/03/10 11:36:51;;;;;;;;;;;;;;;6.86;100.00;101194.53;5029125;28;19917;-82
2021/03/10 11:39:17;;;;;;;;;;;;;;;6.87;99.65;101188.22;5029437;28;19971;-82
2021/03/10 11:41:42;;;;;;;;;;;;;;;6.93;99.14;101195.72;5027135;28;19917;-79
2021/03/10 11:44:07;;;;;;;;;;;;;;;6.96;98.58;101198.13;5027325;28;19971;-81
2021/03/10 11:46:33;;;;;;;;;;;;;;;6.95;97.61;101196.41;5031466;28;19924;-80
2021/03/10 11:48:59;;;;;;;;;;;;;;;6.99;97.23;101192.53;5028403;28;19921;-81
2021/03/10 11:51:24;;;;;;;;;;;;;;;6.98;96.08;101185.47;5028406;28;19917;-83
2021/03/10 11:53:50;;;;;;;;;;;;;;;7.04;96.17;101192.09;5008927;28;19917;-81
2021/03/10 11:56:15;;;;;;;;;;;;;;;7.09;95.91;101181.06;4999069;28;20220;-82
2021/03/10 11:58:40;;;;;;;;;;;;;;;7.10;93.61;101172.91;5003503;28;19968;-80
2021/03/10 12:01:06;;;;;;;;;;;;;;;7.14;93.54;101163.66;5039438;28;19971;-83
2021/03/10 12:03:33;;;;;;;;;;;;;;;7.17;91.46;101168.75;5004756;28;19929;-80
2021/03/10 12:05:59;;;;;;;;;;;;;;;7.20;92.13;101163.13;5009894;28;19929;-81
2021/03/10 12:08:24;;;;;;;;;;;;;;;7.23;92.30;101148.66;5041338;28;19917;-81
2021/03/10 12:10:50;;;;;;;;;;;;;;;7.26;91.74;101151.06;5028306;28;20395;-82
2021/03/10 12:13:15;;;;;;;;;;;;;;;7.33;92.36;101149.53;5007988;28;20004;-80
2021/03/10 12:15:40;;;;;;;;;;;;;;;7.36;91.50;101140.41;5008393;28;20376;-82
2021/03/10 12:18:06;;;;;;;;;;;;;;;7.37;90.36;101134.13;5017453;28;19925;-81
2021/03/10 12:20:31;;;;;;;;;;;;;;;7.38;90.44;101138.47;4998760;28;19932;-81
2021/03/10 12:22:56;;;;;;;;;;;;;;;7.36;88.54;101135.09;5035169;28;19917;-81
2021/03/10 12:25:22;;;;;;;;;;;;;;;7.40;89.81;101126.69;5006124;28;20488;-81
2021/03/10 12:27:48;;;;;;;;;;;;;;;7.41;89.48;101128.34;5040017;28;19917;-84
2021/03/10 12:30:13;;;;;;;;;;;;;;;7.41;87.82;101127.53;5029118;28;20012;-80
2021/03/10 12:32:39;;;;;;;;;;;;;;;7.44;87.82;101122.75;5029775;28;19917;-83
2021/03/10 12:35:05;;;;;;;;;;;;;;;7.44;86.75;101109.41;5018441;28;20342;-80